Ramona, Oklahoma
Current Conditions -  °F | °C
As of 5:53 AM on Friday 21 Nov 2014 (Local Time) from KBVO Reporting Station
Overcast Overcast  
Wind Chill: 37°   Ceiling: 1000
Heat Index: 40°   Visibility: 10mi
Dew Point: 30°   Wind: 5mph
Humidity: 68%   Direction: 10°N
Pressure: 30.13"   Gusts: NA
Location:  36.53°N, 95.92°W
Report Text: KBVO 211153Z AUTO 01004KT 10SM OVC010 04/M01 A3013 RMK AO2 SLP204 T00441011 10044 20000 58006
Loading
Personal Weather Stations






























Interactive Weather Map New forecast layout! Learn more

10-Day Weather Forecast

Advertisements
Track Severe Weather on mobile